createdAt,value
2018-01-30T00:00:26.038Z,0
2018-01-30T00:01:28.532Z,0
2018-01-30T00:02:31.026Z,0
2018-01-30T00:03:33.513Z,0
2018-01-30T00:04:36.020Z,0
2018-01-30T00:05:38.517Z,0
2018-01-30T00:06:40.989Z,0
2018-01-30T00:07:43.493Z,0
2018-01-30T00:08:45.980Z,0
2018-01-30T00:09:48.486Z,0
2018-01-30T00:10:50.969Z,0
2018-01-30T00:11:53.462Z,0
2018-01-30T00:12:55.949Z,0
2018-01-30T00:13:58.461Z,0
2018-01-30T00:15:00.943Z,0
2018-01-30T00:16:03.429Z,0
2018-01-30T00:17:05.918Z,0
2018-01-30T00:18:08.409Z,0
2018-01-30T00:19:11.194Z,0
2018-01-30T00:20:13.686Z,0
2018-01-30T00:21:16.174Z,0
2018-01-30T00:22:18.673Z,0
2018-01-30T00:23:21.146Z,0
2018-01-30T00:24:23.645Z,0
2018-01-30T00:25:26.434Z,0
2018-01-30T00:26:28.923Z,0
2018-01-30T00:27:31.422Z,0
2018-01-30T00:28:33.909Z,0
2018-01-30T00:29:36.404Z,0
2018-01-30T00:30:39.198Z,0
2018-01-30T00:31:41.686Z,0
2018-01-30T00:32:44.471Z,0
2018-01-30T00:33:46.962Z,0
2018-01-30T00:34:49.451Z,0
2018-01-30T00:35:51.944Z,0
2018-01-30T00:36:54.444Z,0
2018-01-30T00:37:56.928Z,0
2018-01-30T00:38:59.432Z,0
2018-01-30T00:40:01.918Z,0
2018-01-30T00:41:04.410Z,0
2018-01-30T00:42:06.907Z,0
2018-01-30T00:43:09.397Z,0
2018-01-30T00:44:11.895Z,0
2018-01-30T00:45:14.387Z,0
2018-01-30T00:46:16.880Z,0
2018-01-30T00:47:19.369Z,0
2018-01-30T00:48:21.873Z,0
2018-01-30T00:49:24.355Z,0
2018-01-30T00:50:26.855Z,0
2018-01-30T00:51:29.349Z,0
2018-01-30T00:52:31.841Z,0
2018-01-30T00:53:34.333Z,0
2018-01-30T00:54:36.826Z,0
2018-01-30T00:55:39.318Z,0
2018-01-30T00:56:41.821Z,0
2018-01-30T00:57:44.309Z,0
2018-01-30T00:58:46.797Z,0
2018-01-30T00:59:49.280Z,0
2018-01-30T01:00:52.073Z,0
2018-01-30T01:01:54.567Z,0
2018-01-30T01:02:57.055Z,0
2018-01-30T01:03:59.531Z,0
2018-01-30T01:05:02.031Z,0
2018-01-30T01:06:04.528Z,0
2018-01-30T01:07:07.303Z,0
2018-01-30T01:08:09.802Z,0
2018-01-30T01:09:12.291Z,0
2018-01-30T01:10:14.784Z,0
2018-01-30T01:11:17.295Z,0
2018-01-30T01:12:19.781Z,0
2018-01-30T01:13:22.275Z,0
2018-01-30T01:14:24.759Z,0
2018-01-30T01:15:27.257Z,0
2018-01-30T01:16:29.753Z,0
2018-01-30T01:17:32.239Z,0
2018-01-30T01:18:34.737Z,0
2018-01-30T01:19:37.229Z,0
2018-01-30T01:20:39.725Z,0
2018-01-30T01:21:42.216Z,0
2018-01-30T01:22:44.716Z,0
2018-01-30T01:23:47.210Z,0
2018-01-30T01:24:49.690Z,0
2018-01-30T01:25:52.184Z,0
2018-01-30T01:26:54.684Z,0
2018-01-30T01:27:57.166Z,0
2018-01-30T01:28:59.663Z,0
2018-01-30T01:30:02.438Z,0
2018-01-30T01:31:04.930Z,0
2018-01-30T01:32:07.445Z,0
2018-01-30T01:33:10.220Z,0
2018-01-30T01:34:12.712Z,0
2018-01-30T01:35:15.492Z,0
2018-01-30T01:36:18.135Z,0
2018-01-30T01:37:20.648Z,0
2018-01-30T01:38:23.136Z,0
2018-01-30T01:39:25.616Z,0
2018-01-30T01:40:28.113Z,0
2018-01-30T01:41:30.602Z,0
2018-01-30T01:42:33.392Z,0
2018-01-30T01:43:36.226Z,0
2018-01-30T01:44:38.664Z,0
2018-01-30T01:45:41.154Z,0
2018-01-30T01:46:43.661Z,0
2018-01-30T01:47:46.150Z,0
2018-01-30T01:48:48.632Z,0
2018-01-30T01:49:51.127Z,0
2018-01-30T01:50:53.627Z,0
2018-01-30T01:51:56.117Z,0
2018-01-30T01:52:58.609Z,0
2018-01-30T01:54:01.095Z,0
2018-01-30T01:55:03.585Z,0
2018-01-30T01:56:06.410Z,0
2018-01-30T01:57:08.901Z,0
2018-01-30T01:58:11.378Z,0
2018-01-30T01:59:13.875Z,0
2018-01-30T02:00:16.366Z,0
2018-01-30T02:01:18.894Z,0
2018-01-30T02:02:21.369Z,0
2018-01-30T02:03:23.846Z,0
2018-01-30T02:04:26.343Z,0
2018-01-30T02:05:28.844Z,0
2018-01-30T02:06:31.333Z,0
2018-01-30T02:07:33.824Z,0
2018-01-30T02:08:36.881Z,0
2018-01-30T02:09:39.377Z,0
2018-01-30T02:10:41.879Z,0
2018-01-30T02:11:44.373Z,0
2018-01-30T02:12:46.855Z,0
2018-01-30T02:13:49.348Z,0
2018-01-30T02:14:51.854Z,0
2018-01-30T02:15:54.634Z,0
2018-01-30T02:16:57.124Z,0
2018-01-30T02:17:59.620Z,0
2018-01-30T02:19:02.116Z,0
2018-01-30T02:20:04.888Z,0
2018-01-30T02:21:07.695Z,0
2018-01-30T02:22:10.184Z,0
2018-01-30T02:23:12.677Z,0
2018-01-30T02:24:15.174Z,0
2018-01-30T02:25:17.670Z,0
2018-01-30T02:26:20.158Z,0
2018-01-30T02:27:22.934Z,0
2018-01-30T02:28:25.426Z,0
2018-01-30T02:29:27.965Z,0
2018-01-30T02:30:30.410Z,0
2018-01-30T02:31:32.912Z,0
2018-01-30T02:32:35.398Z,0
2018-01-30T02:33:37.894Z,0
2018-01-30T02:34:40.382Z,0
2018-01-30T02:35:42.873Z,0
2018-01-30T02:36:45.371Z,0
2018-01-30T02:37:47.862Z,0
2018-01-30T02:38:50.347Z,0
2018-01-30T02:39:52.843Z,0
2018-01-30T02:40:55.332Z,0
2018-01-30T02:41:58.118Z,0
2018-01-30T02:43:00.607Z,0
2018-01-30T02:44:03.105Z,0
2018-01-30T02:45:05.587Z,0
2018-01-30T02:46:08.091Z,0
2018-01-30T02:47:11.237Z,0
2018-01-30T02:48:13.723Z,0
2018-01-30T02:49:16.217Z,0
2018-01-30T02:50:18.714Z,0
2018-01-30T02:51:21.199Z,0
2018-01-30T02:52:23.697Z,0
2018-01-30T02:53:26.188Z,0
2018-01-30T02:54:28.679Z,0
2018-01-30T02:55:31.183Z,0
2018-01-30T02:56:33.674Z,0
2018-01-30T02:57:36.169Z,0
2018-01-30T02:58:38.663Z,0
2018-01-30T02:59:41.154Z,0
2018-01-30T03:00:43.927Z,0
2018-01-30T03:01:46.429Z,0
2018-01-30T03:02:48.905Z,0
2018-01-30T03:03:51.403Z,0
2018-01-30T03:04:54.201Z,0
2018-01-30T03:05:57.002Z,0
2018-01-30T03:06:59.502Z,0
2018-01-30T03:08:01.989Z,0
2018-01-30T03:09:04.479Z,0
2018-01-30T03:10:07.267Z,0
2018-01-30T03:11:09.759Z,0
2018-01-30T03:12:12.240Z,0
2018-01-30T03:13:14.735Z,0
2018-01-30T03:14:17.225Z,0
2018-01-30T03:15:19.713Z,0
2018-01-30T03:16:22.211Z,0
2018-01-30T03:17:24.709Z,0
2018-01-30T03:18:27.202Z,0
2018-01-30T03:19:29.684Z,0
2018-01-30T03:20:32.760Z,0
2018-01-30T03:21:35.255Z,0
2018-01-30T03:22:37.748Z,0
2018-01-30T03:23:40.233Z,0
2018-01-30T03:24:42.720Z,0
2018-01-30T03:25:45.212Z,0
2018-01-30T03:26:47.726Z,0
2018-01-30T03:27:50.213Z,0
2018-01-30T03:28:53.005Z,0
2018-01-30T03:29:55.501Z,0
2018-01-30T03:30:58.005Z,0
2018-01-30T03:32:00.787Z,0
2018-01-30T03:33:03.285Z,0
2018-01-30T03:34:06.360Z,0
2018-01-30T03:35:09.146Z,0
2018-01-30T03:36:11.643Z,0
2018-01-30T03:37:14.142Z,0
2018-01-30T03:38:16.622Z,0
2018-01-30T03:39:19.123Z,0
2018-01-30T03:40:21.902Z,0
2018-01-30T03:41:24.684Z,0
2018-01-30T03:42:27.174Z,0
2018-01-30T03:43:29.674Z,0
2018-01-30T03:44:32.454Z,0
2018-01-30T03:45:34.959Z,0
2018-01-30T03:46:37.446Z,0
2018-01-30T03:47:39.931Z,0
2018-01-30T03:48:42.428Z,0
2018-01-30T03:49:44.922Z,0
2018-01-30T03:50:47.693Z,0
2018-01-30T03:51:50.184Z,0
2018-01-30T03:52:52.691Z,0
2018-01-30T03:53:55.177Z,0
2018-01-30T03:54:57.669Z,0
2018-01-30T03:56:00.447Z,0
2018-01-30T03:57:02.936Z,0
2018-01-30T03:58:05.435Z,0
2018-01-30T03:59:07.933Z,0
2018-01-30T04:00:10.405Z,0
2018-01-30T04:01:12.918Z,0
2018-01-30T04:02:15.401Z,0
2018-01-30T04:03:18.201Z,0
2018-01-30T04:04:20.691Z,0
2018-01-30T04:05:23.188Z,0
2018-01-30T04:06:25.678Z,0
2018-01-30T04:07:28.170Z,0
2018-01-30T04:08:30.656Z,0
2018-01-30T04:09:33.149Z,0
2018-01-30T04:10:35.633Z,0
2018-01-30T04:11:38.122Z,0
2018-01-30T04:12:40.613Z,0
2018-01-30T04:13:43.106Z,0
2018-01-30T04:14:45.596Z,0
2018-01-30T04:15:48.090Z,0
2018-01-30T04:16:50.871Z,0
2018-01-30T04:17:53.361Z,0
2018-01-30T04:18:55.850Z,0
2018-01-30T04:19:58.340Z,0
2018-01-30T04:21:00.839Z,0
2018-01-30T04:22:03.333Z,0
2018-01-30T04:23:05.825Z,0
2018-01-30T04:24:08.317Z,0
2018-01-30T04:25:10.808Z,0
2018-01-30T04:26:13.315Z,0
2018-01-30T04:27:15.803Z,0
2018-01-30T04:28:18.300Z,0
2018-01-30T04:29:20.787Z,0
2018-01-30T04:30:23.282Z,0
2018-01-30T04:31:26.056Z,0
2018-01-30T04:32:28.552Z,0
2018-01-30T04:33:31.034Z,0
2018-01-30T04:34:33.526Z,0
2018-01-30T04:35:36.040Z,0
2018-01-30T04:36:38.525Z,0
2018-01-30T04:37:41.014Z,0
2018-01-30T04:38:44.085Z,0
2018-01-30T04:39:46.577Z,0
2018-01-30T04:40:49.071Z,0
2018-01-30T04:41:51.566Z,0
2018-01-30T04:42:54.052Z,0
2018-01-30T04:43:56.544Z,0
2018-01-30T04:44:59.048Z,0
2018-01-30T04:46:01.535Z,0
2018-01-30T04:47:04.316Z,0
2018-01-30T04:48:06.803Z,0
2018-01-30T04:49:09.301Z,0
2018-01-30T04:50:11.848Z,0
2018-01-30T04:51:14.629Z,0
2018-01-30T04:52:17.115Z,0
2018-01-30T04:53:19.609Z,0
2018-01-30T04:54:22.097Z,0
2018-01-30T04:55:24.594Z,0
2018-01-30T04:56:27.082Z,0
2018-01-30T04:57:29.577Z,0
2018-01-30T04:58:32.065Z,0
2018-01-30T04:59:34.567Z,0
2018-01-30T05:00:37.050Z,0
2018-01-30T05:01:39.552Z,0
2018-01-30T05:02:42.044Z,0
2018-01-30T05:03:44.532Z,0
2018-01-30T05:04:47.025Z,0
2018-01-30T05:05:49.515Z,0
2018-01-30T05:06:51.993Z,0
2018-01-30T05:07:54.786Z,0
2018-01-30T05:08:57.563Z,0
2018-01-30T05:10:00.069Z,0
2018-01-30T05:11:02.855Z,0
2018-01-30T05:12:05.637Z,0
2018-01-30T05:13:08.416Z,0
2018-01-30T05:14:11.209Z,0
2018-01-30T05:15:13.713Z,0
2018-01-30T05:16:16.192Z,0
2018-01-30T05:17:18.688Z,0
2018-01-30T05:18:21.176Z,0
2018-01-30T05:19:23.682Z,0
2018-01-30T05:20:26.185Z,0
2018-01-30T05:21:28.665Z,0
2018-01-30T05:22:31.155Z,0
2018-01-30T05:23:33.665Z,0
2018-01-30T05:24:36.147Z,0
2018-01-30T05:25:38.637Z,0
2018-01-30T05:26:41.124Z,0
2018-01-30T05:27:43.622Z,0
2018-01-30T05:28:46.107Z,0
2018-01-30T05:29:48.608Z,0
2018-01-30T05:30:51.097Z,0
2018-01-30T05:31:53.588Z,0
2018-01-30T05:32:56.090Z,0
2018-01-30T05:33:58.579Z,0
2018-01-30T05:35:01.361Z,0
2018-01-30T05:36:03.854Z,0
2018-01-30T05:37:06.347Z,0
2018-01-30T05:38:08.839Z,0
2018-01-30T05:39:11.340Z,0
2018-01-30T05:40:13.823Z,0
2018-01-30T05:41:16.317Z,0
2018-01-30T05:42:18.830Z,0
2018-01-30T05:43:21.311Z,0
2018-01-30T05:44:23.810Z,0
2018-01-30T05:45:26.295Z,0
2018-01-30T05:46:28.799Z,0
2018-01-30T05:47:31.271Z,0
2018-01-30T05:48:33.767Z,0
2018-01-30T05:49:36.282Z,0
2018-01-30T05:50:38.766Z,0
2018-01-30T05:51:41.261Z,0
2018-01-30T05:52:43.754Z,0
2018-01-30T05:53:46.247Z,0
2018-01-30T05:54:48.751Z,0
2018-01-30T05:55:51.243Z,0
2018-01-30T05:56:53.725Z,0
2018-01-30T05:57:56.220Z,0
2018-01-30T05:58:58.715Z,0
2018-01-30T06:00:01.205Z,0
2018-01-30T06:01:03.997Z,0
2018-01-30T06:02:06.484Z,0
2018-01-30T06:03:08.965Z,0
2018-01-30T06:04:11.463Z,0
2018-01-30T06:05:13.957Z,0
2018-01-30T06:06:16.439Z,0
2018-01-30T06:07:19.231Z,0
2018-01-30T06:08:21.726Z,0
2018-01-30T06:09:24.504Z,0
2018-01-30T06:10:27.005Z,0
2018-01-30T06:11:29.503Z,0
2018-01-30T06:12:31.990Z,0
2018-01-30T06:13:34.488Z,0
2018-01-30T06:14:37.263Z,0
2018-01-30T06:15:39.756Z,0
2018-01-30T06:16:42.546Z,0
2018-01-30T06:17:45.032Z,0
2018-01-30T06:18:47.819Z,0
2018-01-30T06:19:50.308Z,0
2018-01-30T06:20:52.821Z,0
2018-01-30T06:21:55.294Z,0
2018-01-30T06:22:57.793Z,0
2018-01-30T06:24:00.279Z,0
2018-01-30T06:25:02.767Z,0
2018-01-30T06:26:05.575Z,0
2018-01-30T06:27:08.071Z,0
2018-01-30T06:28:10.553Z,0
2018-01-30T06:29:13.057Z,0
2018-01-30T06:30:15.536Z,0
2018-01-30T06:31:18.036Z,0
2018-01-30T06:32:20.811Z,0
2018-01-30T06:33:23.309Z,0
2018-01-30T06:34:25.793Z,0
2018-01-30T06:35:28.292Z,0
2018-01-30T06:36:30.834Z,0
2018-01-30T06:37:33.327Z,0
2018-01-30T06:38:35.818Z,0
2018-01-30T06:39:38.305Z,0
2018-01-30T06:40:40.796Z,0
2018-01-30T06:41:43.304Z,0
2018-01-30T06:42:45.793Z,0
2018-01-30T06:43:48.282Z,0
2018-01-30T06:44:51.068Z,0
2018-01-30T06:45:53.558Z,0
2018-01-30T06:46:56.040Z,0
2018-01-30T06:47:58.542Z,0
2018-01-30T06:49:01.320Z,0
2018-01-30T06:50:03.824Z,0
2018-01-30T06:51:06.313Z,1
2018-01-30T06:52:09.098Z,1
2018-01-30T06:53:11.584Z,1
2018-01-30T06:54:14.092Z,1
2018-01-30T06:55:16.581Z,1
2018-01-30T06:56:19.075Z,1
2018-01-30T06:57:21.846Z,1
2018-01-30T06:58:24.408Z,1
2018-01-30T06:59:26.829Z,2
2018-01-30T07:00:29.321Z,2
2018-01-30T07:01:32.144Z,2
2018-01-30T07:02:34.622Z,2
2018-01-30T07:03:37.697Z,2
2018-01-30T07:04:40.489Z,3
2018-01-30T07:05:42.961Z,3
2018-01-30T07:06:45.472Z,3
2018-01-30T07:07:47.956Z,3
2018-01-30T07:08:50.739Z,4
2018-01-30T07:09:53.230Z,4
2018-01-30T07:10:55.724Z,4
2018-01-30T07:11:58.208Z,5
2018-01-30T07:13:00.713Z,5
2018-01-30T07:14:03.196Z,5
2018-01-30T07:15:05.973Z,6
2018-01-30T07:16:08.465Z,6
2018-01-30T07:17:10.964Z,6
2018-01-30T07:18:13.444Z,7
2018-01-30T07:19:15.944Z,7
2018-01-30T07:20:18.433Z,7
2018-01-30T07:21:20.925Z,7
2018-01-30T07:22:23.714Z,7
2018-01-30T07:23:26.203Z,8
2018-01-30T07:24:28.704Z,8
2018-01-30T07:25:31.477Z,8
2018-01-30T07:26:33.967Z,9
2018-01-30T07:27:36.456Z,9
2018-01-30T07:28:38.955Z,10
2018-01-30T07:29:41.429Z,10
2018-01-30T07:30:43.923Z,11
2018-01-30T07:31:46.433Z,12
2018-01-30T07:32:48.907Z,12
2018-01-30T07:33:51.402Z,13
2018-01-30T07:34:53.890Z,13
2018-01-30T07:35:56.378Z,13
2018-01-30T07:36:58.878Z,14
2018-01-30T07:38:01.369Z,17
2018-01-30T07:39:03.851Z,21
2018-01-30T07:40:06.643Z,23
2018-01-30T07:41:09.142Z,20
2018-01-30T07:42:11.915Z,21
2018-01-30T07:43:14.411Z,26
2018-01-30T07:44:16.903Z,27
2018-01-30T07:45:19.401Z,30
2018-01-30T07:46:22.194Z,33
2018-01-30T07:47:24.995Z,29
2018-01-30T07:48:27.491Z,28
2018-01-30T07:49:29.983Z,37
2018-01-30T07:50:32.463Z,39
2018-01-30T07:51:34.964Z,42
2018-01-30T07:52:37.444Z,43
2018-01-30T07:53:39.945Z,42
2018-01-30T07:54:42.434Z,37
2018-01-30T07:55:44.920Z,44
2018-01-30T07:56:47.417Z,29
2018-01-30T07:57:49.909Z,45
2018-01-30T07:58:52.404Z,45
2018-01-30T07:59:54.895Z,51
2018-01-30T08:00:57.388Z,52
2018-01-30T08:01:59.874Z,49
2018-01-30T08:03:02.385Z,54
2018-01-30T08:04:05.180Z,55
2018-01-30T08:05:07.660Z,58
2018-01-30T08:06:10.160Z,58
2018-01-30T08:07:12.654Z,50
2018-01-30T08:08:15.148Z,36
2018-01-30T08:09:17.642Z,47
2018-01-30T08:10:20.710Z,69
2018-01-30T08:11:23.496Z,70
2018-01-30T08:12:26.004Z,72
2018-01-30T08:13:28.492Z,47
2018-01-30T08:14:30.978Z,58
2018-01-30T08:15:33.474Z,32
2018-01-30T08:16:35.971Z,29
2018-01-30T08:17:38.464Z,41
2018-01-30T08:18:40.946Z,37
2018-01-30T08:19:43.450Z,44
2018-01-30T08:20:45.939Z,32
2018-01-30T08:21:48.429Z,26
2018-01-30T08:22:50.923Z,24
2018-01-30T08:23:53.412Z,21
2018-01-30T08:24:55.918Z,22
2018-01-30T08:25:58.408Z,25
2018-01-30T08:27:00.882Z,30
2018-01-30T08:28:03.395Z,30
2018-01-30T08:29:05.868Z,32
2018-01-30T08:30:08.364Z,36
2018-01-30T08:31:10.852Z,78
2018-01-30T08:32:13.356Z,87
2018-01-30T08:33:15.842Z,95
2018-01-30T08:34:18.335Z,80
2018-01-30T08:35:20.821Z,97
2018-01-30T08:36:23.325Z,97
2018-01-30T08:37:25.820Z,107
2018-01-30T08:38:28.311Z,107
2018-01-30T08:39:30.809Z,109
2018-01-30T08:40:33.302Z,106
2018-01-30T08:41:35.792Z,86
2018-01-30T08:42:38.296Z,109
2018-01-30T08:43:40.771Z,108
2018-01-30T08:44:43.270Z,64
2018-01-30T08:45:45.774Z,98
2018-01-30T08:46:48.263Z,67
2018-01-30T08:47:50.753Z,108
2018-01-30T08:48:53.533Z,99
2018-01-30T08:49:56.024Z,67
2018-01-30T08:50:58.525Z,80
2018-01-30T08:52:01.024Z,82
2018-01-30T08:53:03.507Z,59
2018-01-30T08:54:06.003Z,102
2018-01-30T08:55:08.805Z,59
2018-01-30T08:56:11.611Z,57
2018-01-30T08:57:14.108Z,42
2018-01-30T08:58:16.644Z,38
2018-01-30T08:59:19.987Z,36
2018-01-30T09:00:22.730Z,35
2018-01-30T09:01:25.224Z,34
2018-01-30T09:02:27.771Z,34
2018-01-30T09:03:30.292Z,35
2018-01-30T09:04:32.833Z,42
2018-01-30T09:05:35.375Z,39
2018-01-30T09:06:37.935Z,53
2018-01-30T09:07:40.430Z,43
2018-01-30T09:08:42.944Z,36
2018-01-30T09:09:45.504Z,34
2018-01-30T09:10:48.473Z,49
2018-01-30T09:11:51.183Z,43
2018-01-30T09:12:54.177Z,44
2018-01-30T09:13:56.801Z,40
2018-01-30T09:14:59.486Z,46
2018-01-30T09:16:02.281Z,51
2018-01-30T09:17:04.776Z,55
2018-01-30T09:18:07.271Z,49
2018-01-30T09:19:09.761Z,50
2018-01-30T09:20:12.258Z,53
2018-01-30T09:21:14.749Z,83
2018-01-30T09:22:17.247Z,76
2018-01-30T09:23:19.735Z,79
2018-01-30T09:24:22.231Z,87
2018-01-30T09:25:24.719Z,83
2018-01-30T09:26:27.229Z,154
2018-01-30T09:27:29.713Z,65
2018-01-30T09:28:32.509Z,62
2018-01-30T09:29:35.004Z,68
2018-01-30T09:30:37.495Z,68
2018-01-30T09:31:40.291Z,69
2018-01-30T09:32:42.786Z,74
2018-01-30T09:33:45.277Z,89
2018-01-30T09:34:47.789Z,95
2018-01-30T09:35:50.265Z,78
2018-01-30T09:36:52.766Z,150
2018-01-30T09:37:55.553Z,123
2018-01-30T09:38:58.051Z,141
2018-01-30T09:40:00.548Z,170
2018-01-30T09:41:03.043Z,198
2018-01-30T09:42:05.533Z,82
2018-01-30T09:43:08.011Z,192
2018-01-30T09:44:10.795Z,164
2018-01-30T09:45:13.585Z,221
2018-01-30T09:46:16.082Z,211
2018-01-30T09:47:18.573Z,215
2018-01-30T09:48:21.077Z,93
2018-01-30T09:49:23.588Z,85
2018-01-30T09:50:26.076Z,77
2018-01-30T09:51:28.868Z,100
2018-01-30T09:52:31.370Z,79
2018-01-30T09:53:33.865Z,84
2018-01-30T09:54:36.652Z,92
2018-01-30T09:55:39.145Z,220
2018-01-30T09:56:41.646Z,229
2018-01-30T09:57:44.143Z,173
2018-01-30T09:58:46.645Z,102
2018-01-30T09:59:49.136Z,97
2018-01-30T10:00:51.644Z,135
2018-01-30T10:01:54.129Z,72
2018-01-30T10:02:56.626Z,68
2018-01-30T10:03:59.125Z,73
2018-01-30T10:05:01.911Z,81
2018-01-30T10:06:04.705Z,61
2018-01-30T10:07:07.201Z,53
2018-01-30T10:08:09.696Z,48
2018-01-30T10:09:12.211Z,60
2018-01-30T10:10:14.995Z,67
2018-01-30T10:11:17.489Z,57
2018-01-30T10:12:19.979Z,47
2018-01-30T10:13:22.775Z,45
2018-01-30T10:14:25.541Z,40
2018-01-30T10:15:28.042Z,41
2018-01-30T10:16:30.560Z,41
2018-01-30T10:17:33.384Z,34
2018-01-30T10:18:35.884Z,33
2018-01-30T10:19:38.381Z,46
2018-01-30T10:20:41.162Z,44
2018-01-30T10:21:43.669Z,61
2018-01-30T10:22:46.163Z,72
2018-01-30T10:23:48.645Z,59
2018-01-30T10:24:51.143Z,59
2018-01-30T10:25:53.646Z,59
2018-01-30T10:26:56.427Z,45
2018-01-30T10:27:59.219Z,38
2018-01-30T10:29:01.719Z,38
2018-01-30T10:30:04.519Z,36
2018-01-30T10:31:07.021Z,30
2018-01-30T10:32:09.522Z,34
2018-01-30T10:33:12.008Z,38
2018-01-30T10:34:14.512Z,44
2018-01-30T10:35:17.010Z,47
2018-01-30T10:36:19.506Z,58
2018-01-30T10:37:22.278Z,58
2018-01-30T10:38:24.781Z,58
2018-01-30T10:39:27.268Z,49
2018-01-30T10:40:29.771Z,46
2018-01-30T10:41:32.271Z,64
2018-01-30T10:42:34.752Z,54
2018-01-30T10:43:37.263Z,59
2018-01-30T10:44:39.752Z,57
2018-01-30T10:45:42.252Z,46
2018-01-30T10:46:44.745Z,41
2018-01-30T10:47:47.242Z,38
2018-01-30T10:48:49.729Z,38
2018-01-30T10:49:52.225Z,35
2018-01-30T10:50:54.712Z,40
2018-01-30T10:51:57.204Z,38
2018-01-30T10:52:59.695Z,42
2018-01-30T10:54:02.190Z,43
2018-01-30T10:55:04.679Z,40
2018-01-30T10:56:07.178Z,34
2018-01-30T10:57:09.662Z,36
2018-01-30T10:58:12.455Z,38
2018-01-30T10:59:14.945Z,50
2018-01-30T11:00:17.442Z,47
2018-01-30T11:01:19.933Z,44
2018-01-30T11:02:22.433Z,41
2018-01-30T11:03:24.918Z,39
2018-01-30T11:04:27.442Z,42
2018-01-30T11:05:30.215Z,46
2018-01-30T11:06:32.705Z,50
2018-01-30T11:07:35.492Z,53
2018-01-30T11:08:37.982Z,52
2018-01-30T11:09:40.482Z,57
2018-01-30T11:10:43.274Z,64
2018-01-30T11:11:46.054Z,81
2018-01-30T11:12:48.548Z,101
2018-01-30T11:13:51.322Z,75
2018-01-30T11:14:53.815Z,94
2018-01-30T11:15:56.327Z,77
2018-01-30T11:16:58.815Z,103
2018-01-30T11:18:01.306Z,119
2018-01-30T11:19:04.089Z,119
2018-01-30T11:20:06.875Z,111
2018-01-30T11:21:09.369Z,139
2018-01-30T11:22:11.920Z,123
2018-01-30T11:23:14.349Z,117
2018-01-30T11:24:16.848Z,103
2018-01-30T11:25:19.353Z,96
2018-01-30T11:26:21.841Z,93
2018-01-30T11:27:24.338Z,90
2018-01-30T11:28:26.826Z,82
2018-01-30T11:29:29.323Z,96
2018-01-30T11:30:32.119Z,102
2018-01-30T11:31:34.612Z,90
2018-01-30T11:32:37.398Z,83
2018-01-30T11:33:39.890Z,71
2018-01-30T11:34:42.393Z,63
2018-01-30T11:35:44.898Z,58
2018-01-30T11:36:47.400Z,53
2018-01-30T11:37:49.877Z,68
2018-01-30T11:38:52.376Z,73
2018-01-30T11:39:54.884Z,84
2018-01-30T11:40:57.381Z,78
2018-01-30T11:41:59.860Z,72
2018-01-30T11:43:02.363Z,53
2018-01-30T11:44:05.151Z,43
2018-01-30T11:45:07.653Z,46
2018-01-30T11:46:10.156Z,41
2018-01-30T11:47:12.947Z,42
2018-01-30T11:48:15.435Z,57
2018-01-30T11:49:17.944Z,52
2018-01-30T11:50:20.724Z,60
2018-01-30T11:51:23.213Z,74
2018-01-30T11:52:25.717Z,64
2018-01-30T11:53:28.500Z,72
2018-01-30T11:54:30.999Z,98
2018-01-30T11:55:33.513Z,74
2018-01-30T11:56:35.979Z,66
2018-01-30T11:57:38.477Z,54
2018-01-30T11:58:40.978Z,51
2018-01-30T11:59:43.470Z,53
2018-01-30T12:00:45.965Z,49
2018-01-30T12:01:48.466Z,58
2018-01-30T12:02:51.241Z,65
2018-01-30T12:03:53.760Z,75
2018-01-30T12:04:56.545Z,88
2018-01-30T12:05:59.040Z,90
2018-01-30T12:07:01.539Z,90
2018-01-30T12:08:04.033Z,91
2018-01-30T12:09:06.975Z,104
2018-01-30T12:10:09.475Z,146
2018-01-30T12:11:11.970Z,114
2018-01-30T12:12:14.473Z,108
2018-01-30T12:13:16.952Z,101
2018-01-30T12:14:19.461Z,87
2018-01-30T12:15:21.952Z,81
2018-01-30T12:16:24.450Z,98
2018-01-30T12:17:26.946Z,129
2018-01-30T12:18:29.441Z,92
2018-01-30T12:19:32.229Z,78
2018-01-30T12:20:34.733Z,77
2018-01-30T12:21:37.217Z,91
2018-01-30T12:22:39.717Z,143
2018-01-30T12:23:42.209Z,142
2018-01-30T12:24:44.724Z,130
2018-01-30T12:25:47.207Z,200
2018-01-30T12:26:49.706Z,214
2018-01-30T12:27:52.193Z,106
2018-01-30T12:28:54.694Z,94
2018-01-30T12:29:57.184Z,106
2018-01-30T12:30:59.980Z,108
2018-01-30T12:32:02.466Z,86
2018-01-30T12:33:04.963Z,90
2018-01-30T12:34:07.455Z,80
2018-01-30T12:35:10.243Z,54
2018-01-30T12:36:12.732Z,48
2018-01-30T12:37:15.225Z,46
2018-01-30T12:38:18.003Z,58
2018-01-30T12:39:20.798Z,62
2018-01-30T12:40:23.291Z,67
2018-01-30T12:41:25.792Z,74
2018-01-30T12:42:28.283Z,79
2018-01-30T12:43:31.058Z,87
2018-01-30T12:44:33.558Z,85
2018-01-30T12:45:36.345Z,104
2018-01-30T12:46:38.830Z,169
2018-01-30T12:47:41.333Z,171
2018-01-30T12:48:43.837Z,132
2018-01-30T12:49:46.329Z,99
2018-01-30T12:50:48.834Z,88
2018-01-30T12:51:51.337Z,76
2018-01-30T12:52:54.141Z,66
2018-01-30T12:53:56.628Z,60
2018-01-30T12:54:59.420Z,53
2018-01-30T12:56:01.923Z,47
2018-01-30T12:57:04.419Z,38
2018-01-30T12:58:06.916Z,46
2018-01-30T12:59:09.411Z,37
2018-01-30T13:00:11.914Z,37
2018-01-30T13:01:14.396Z,37
2018-01-30T13:02:17.101Z,32
2018-01-30T13:03:19.599Z,36
2018-01-30T13:04:22.090Z,34
2018-01-30T13:05:24.594Z,31
2018-01-30T13:06:27.086Z,26
2018-01-30T13:07:29.579Z,20
2018-01-30T13:08:32.085Z,21
2018-01-30T13:09:34.579Z,26
2018-01-30T13:10:37.063Z,25
2018-01-30T13:11:39.565Z,26
2018-01-30T13:12:42.055Z,34
2018-01-30T13:13:44.556Z,44
2018-01-30T13:14:47.040Z,50
2018-01-30T13:15:49.547Z,45
2018-01-30T13:16:52.043Z,35
2018-01-30T13:17:54.538Z,36
2018-01-30T13:18:57.036Z,39
2018-01-30T13:19:59.529Z,41
2018-01-30T13:21:02.018Z,44
2018-01-30T13:22:04.818Z,42
2018-01-30T13:23:07.315Z,46
2018-01-30T13:24:09.807Z,59
2018-01-30T13:25:12.304Z,44
2018-01-30T13:26:14.808Z,42
2018-01-30T13:27:17.307Z,44
2018-01-30T13:28:19.808Z,42
2018-01-30T13:29:22.585Z,39
2018-01-30T13:30:25.084Z,34
2018-01-30T13:31:27.880Z,32
2018-01-30T13:32:30.377Z,36
2018-01-30T13:33:32.862Z,52
2018-01-30T13:34:35.362Z,47
2018-01-30T13:35:38.138Z,46
2018-01-30T13:36:40.938Z,41
2018-01-30T13:37:43.427Z,44
2018-01-30T13:38:45.918Z,48
2018-01-30T13:39:48.418Z,51
2018-01-30T13:40:50.937Z,53
2018-01-30T13:41:53.406Z,61
2018-01-30T13:42:55.905Z,84
2018-01-30T13:43:58.401Z,56
2018-01-30T13:45:01.190Z,51
2018-01-30T13:46:03.680Z,60
2018-01-30T13:47:07.048Z,83
2018-01-30T13:48:09.543Z,91
2018-01-30T13:49:12.037Z,72
2018-01-30T13:50:14.537Z,70
2018-01-30T13:51:17.030Z,60
2018-01-30T13:52:19.533Z,60
2018-01-30T13:53:22.044Z,63
2018-01-30T13:54:24.529Z,76
2018-01-30T13:55:27.025Z,67
2018-01-30T13:56:29.526Z,70
2018-01-30T13:57:32.028Z,58
2018-01-30T13:58:34.520Z,60
2018-01-30T13:59:37.029Z,59
2018-01-30T14:00:39.506Z,60
2018-01-30T14:01:42.018Z,54
2018-01-30T14:02:44.510Z,58
2018-01-30T14:03:47.006Z,58
2018-01-30T14:04:49.793Z,61
2018-01-30T14:05:52.284Z,61
2018-01-30T14:06:54.778Z,63
2018-01-30T14:07:57.284Z,62
2018-01-30T14:08:59.782Z,58
2018-01-30T14:10:02.553Z,53
2018-01-30T14:11:05.342Z,54
2018-01-30T14:12:07.853Z,56
2018-01-30T14:13:10.348Z,58
2018-01-30T14:14:12.841Z,55
2018-01-30T14:15:15.344Z,50
2018-01-30T14:16:18.123Z,44
2018-01-30T14:17:20.917Z,40
2018-01-30T14:18:23.416Z,38
2018-01-30T14:19:25.891Z,37
2018-01-30T14:20:28.393Z,37
2018-01-30T14:21:30.892Z,36
2018-01-30T14:22:33.387Z,36
2018-01-30T14:23:35.894Z,33
2018-01-30T14:24:38.367Z,30
2018-01-30T14:25:40.868Z,30
2018-01-30T14:26:43.382Z,33
2018-01-30T14:27:45.884Z,29
2018-01-30T14:28:48.384Z,26
2018-01-30T14:29:51.170Z,26
2018-01-30T14:30:53.955Z,27
2018-01-30T14:31:56.750Z,25
2018-01-30T14:32:59.529Z,24
2018-01-30T14:34:02.302Z,23
2018-01-30T14:35:04.800Z,25
2018-01-30T14:36:07.292Z,29
2018-01-30T14:37:09.790Z,30
2018-01-30T14:38:12.282Z,30
2018-01-30T14:39:14.785Z,29
2018-01-30T14:40:17.278Z,28
2018-01-30T14:41:19.794Z,27
2018-01-30T14:42:22.286Z,27
2018-01-30T14:43:24.766Z,27
2018-01-30T14:44:27.268Z,26
2018-01-30T14:45:29.760Z,24
2018-01-30T14:46:32.257Z,24
2018-01-30T14:47:34.751Z,23
2018-01-30T14:48:37.231Z,24
2018-01-30T14:49:40.012Z,23
2018-01-30T14:50:42.565Z,22
2018-01-30T14:51:45.299Z,21
2018-01-30T14:52:48.081Z,20
2018-01-30T14:53:50.869Z,19
2018-01-30T14:54:53.360Z,20
2018-01-30T14:55:55.863Z,22
2018-01-30T14:56:58.361Z,22
2018-01-30T14:58:01.137Z,22
2018-01-30T14:59:03.628Z,24
2018-01-30T15:00:06.426Z,24
2018-01-30T15:01:09.205Z,22
2018-01-30T15:02:11.696Z,19
2018-01-30T15:03:14.192Z,18
2018-01-30T15:04:16.994Z,17
2018-01-30T15:05:19.773Z,17
2018-01-30T15:06:22.274Z,17